Terminal Aerodrome Forecast
Issued by NWS

Home | Current Version | Previous Version | Text Only | Print | Product List | Glossary On
Versions: 1 2 3 4 5 6 7 8 9 10 11 12
000
FTAK31 PAFA 271739
TAFAMC
TAF
PAMC 271739Z 2718/2818 VRB06KT P6SM FEW050 SCT100 BKN200
     FM272000 VRB06KT P6SM VCSH SCT035 BKN050 BKN100
     FM280600 VRB06KT P6SM -SHRA SCT035 BKN050 BKN100=

USA.gov is the U.S. government's official web portal to all federal, state and local government web resources and services.